Time;durP1;ratioP1;P1;durP2;ratioP2;P2;SDS_P1;SDS_P2;PMS_P1;PMS_P2;Temp;Humidity;BMP_temperature;BMP_pressure;BME280_temperature;BME280_humidity;BME280_pressure;Samples;Min_cycle;Max_cycle;Signal;HPM_P1;HPM_P2
2022/07/16 00:02:44;;;;;;;;;;;17.40;99.90;;;;;;5049201;28;20087;-61
2022/07/16 00:05:12;;;;;;;6.40;1.90;;;17.30;99.90;;;;;;5048709;28;19952;-62
2022/07/16 00:07:37;;;;;;;2.88;2.10;;;17.30;99.90;;;;;;5048794;28;20108;-62
2022/07/16 00:10:04;;;;;;;4.55;1.90;;;17.30;99.90;;;;;;5049467;28;20402;-60
2022/07/16 00:12:30;;;;;;;2.60;1.98;;;17.30;99.90;;;;;;5049203;28;20446;-60
2022/07/16 00:14:56;;;;;;;2.72;1.98;;;17.30;99.90;;;;;;5047094;28;20033;-60
2022/07/16 00:17:21;;;;;;;5.38;2.28;;;17.20;99.90;;;;;;5045861;28;20438;-60
2022/07/16 00:19:47;;;;;;;3.95;2.40;;;17.30;99.90;;;;;;5049342;28;20041;-60
2022/07/16 00:22:13;;;;;;;3.20;2.00;;;17.30;99.90;;;;;;5052791;28;20076;-60
2022/07/16 00:24:38;;;;;;;4.18;2.00;;;17.20;99.90;;;;;;5046684;28;20045;-62
2022/07/16 00:27:05;;;;;;;4.10;2.17;;;17.20;99.90;;;;;;5047840;28;20028;-61
2022/07/16 00:29:31;;;;;;;4.38;2.28;;;17.20;99.90;;;;;;5046942;28;20038;-62
2022/07/16 00:31:57;;;;;;;4.45;1.90;;;17.20;99.90;;;;;;5051372;28;20037;-61
2022/07/16 00:34:22;;;;;;;5.10;2.25;;;17.20;99.90;;;;;;5048514;28;20044;-60
2022/07/16 00:36:49;;;;;;;4.15;2.38;;;17.20;99.90;;;;;;5048451;28;20040;-60
2022/07/16 00:39:16;;;;;;;3.65;2.30;;;17.20;99.90;;;;;;5049190;28;20037;-59
2022/07/16 00:41:44;;;;;;;3.65;2.13;;;17.30;99.90;;;;;;5045247;28;20029;-60
2022/07/16 00:44:12;;;;;;;4.35;2.13;;;17.30;99.90;;;;;;5047248;28;20064;-60
2022/07/16 00:46:39;;;;;;;4.68;2.08;;;17.20;99.90;;;;;;5047017;28;20025;-60
2022/07/16 00:49:05;;;;;;;4.25;2.22;;;17.20;99.90;;;;;;5048072;28;20071;-60
2022/07/16 00:51:32;;;;;;;4.40;2.30;;;17.20;99.90;;;;;;5047345;28;20327;-61
2022/07/16 00:53:59;;;;;;;3.67;2.30;;;17.20;99.90;;;;;;5048329;28;20079;-60
2022/07/16 00:56:25;;;;;;;6.20;2.33;;;17.20;99.90;;;;;;5024955;28;20041;-60
2022/07/16 00:58:53;;;;;;;4.32;2.13;;;17.20;99.90;;;;;;5047744;28;20058;-60
2022/07/16 01:01:20;;;;;;;4.82;2.20;;;17.20;99.90;;;;;;5046900;28;20397;-60
2022/07/16 01:03:46;;;;;;;3.92;2.20;;;17.20;99.90;;;;;;5046278;28;20037;-60
2022/07/16 01:06:13;;;;;;;3.92;2.10;;;17.20;99.90;;;;;;5045982;28;20048;-60
2022/07/16 01:08:44;;;;;;;4.28;2.15;;;17.30;99.90;;;;;;5051411;28;20040;-60
2022/07/16 01:11:13;;;;;;;4.85;2.15;;;17.30;99.90;;;;;;5052588;28;20124;-60
2022/07/16 01:13:40;;;;;;;5.25;2.20;;;17.30;99.90;;;;;;5045645;28;20045;-60
2022/07/16 01:16:08;;;;;;;3.47;2.20;;;17.20;99.90;;;;;;5045041;28;20451;-61
2022/07/16 01:18:34;;;;;;;2.78;1.73;;;17.30;99.90;;;;;;5048277;28;20033;-60
2022/07/16 01:21:01;;;;;;;5.97;1.92;;;17.30;99.90;;;;;;5043135;28;20042;-60
2022/07/16 01:23:26;;;;;;;4.10;1.98;;;17.40;99.90;;;;;;5033451;28;20044;-60
2022/07/16 01:25:53;;;;;;;7.40;2.08;;;17.50;99.90;;;;;;5044414;28;20048;-61
2022/07/16 01:28:19;;;;;;;4.43;1.98;;;17.60;99.90;;;;;;5047891;28;20033;-60
2022/07/16 01:30:46;;;;;;;5.10;1.90;;;17.70;99.90;;;;;;5047460;28;20037;-60
2022/07/16 01:33:28;;;;;;;7.43;2.60;;;17.80;99.90;;;;;;5049667;28;20523;-61
2022/07/16 01:36:03;;;;;;;8.65;2.20;;;17.90;99.90;;;;;;5044620;28;20429;-60
2022/07/16 01:38:29;;;;;;;5.78;2.13;;;17.90;99.90;;;;;;5044669;28;20041;-60
2022/07/16 01:40:55;;;;;;;6.05;2.47;;;17.80;99.90;;;;;;5046056;28;20076;-60
2022/07/16 01:43:25;;;;;;;8.30;2.55;;;17.80;99.90;;;;;;5048231;28;20366;-60
2022/07/16 01:45:51;;;;;;;5.07;2.40;;;17.70;99.90;;;;;;5048683;28;20033;-61
2022/07/16 01:48:18;;;;;;;5.10;3.00;;;17.60;99.90;;;;;;5044540;28;20116;-61
2022/07/16 01:50:44;;;;;;;6.50;2.65;;;17.60;99.90;;;;;;5047296;28;20094;-61
2022/07/16 01:53:10;;;;;;;6.55;2.90;;;17.60;99.90;;;;;;5046815;28;20041;-61
2022/07/16 01:55:37;;;;;;;9.30;3.35;;;17.50;99.90;;;;;;5042461;28;20029;-61
2022/07/16 01:58:04;;;;;;;7.32;3.00;;;17.50;99.90;;;;;;5047409;28;20397;-61
2022/07/16 02:00:31;;;;;;;8.60;3.03;;;17.50;99.90;;;;;;5045012;28;20059;-61
2022/07/16 02:02:57;;;;;;;8.40;3.22;;;17.40;99.90;;;;;;5045793;28;20080;-61
2022/07/16 02:05:23;;;;;;;7.32;3.13;;;17.30;99.90;;;;;;5046110;28;20033;-61
2022/07/16 02:07:49;;;;;;;5.82;3.08;;;17.20;99.90;;;;;;5047397;28;20074;-60
2022/07/16 02:10:15;;;;;;;8.40;3.08;;;17.20;99.90;;;;;;5047417;28;20409;-61
2022/07/16 02:12:40;;;;;;;7.45;2.83;;;17.10;99.90;;;;;;5047606;28;20071;-60
2022/07/16 02:15:07;;;;;;;4.90;2.67;;;17.00;99.90;;;;;;5044928;28;20115;-61
2022/07/16 02:17:34;;;;;;;5.07;2.47;;;17.00;99.90;;;;;;5027789;28;20467;-61
2022/07/16 02:20:00;;;;;;;4.28;2.20;;;16.90;99.90;;;;;;5027141;28;20045;-61
2022/07/16 02:22:26;;;;;;;8.02;2.80;;;17.00;99.90;;;;;;5046074;28;20099;-61
2022/07/16 02:24:52;;;;;;;4.25;2.00;;;16.90;99.90;;;;;;5046419;28;20049;-61
2022/07/16 02:27:18;;;;;;;6.53;2.30;;;16.90;99.90;;;;;;5053925;28;20044;-61
2022/07/16 02:29:43;;;;;;;5.93;2.05;;;16.80;99.90;;;;;;5048157;28;20076;-61
2022/07/16 02:32:09;;;;;;;7.80;2.75;;;16.80;99.90;;;;;;5052972;28;20076;-60
2022/07/16 02:34:35;;;;;;;6.22;2.10;;;16.70;99.90;;;;;;5050498;28;20179;-61
2022/07/16 02:37:00;;;;;;;6.82;2.22;;;16.70;99.90;;;;;;5050963;28;20145;-60
2022/07/16 02:39:26;;;;;;;3.22;1.77;;;16.60;99.90;;;;;;5050225;28;20049;-60
2022/07/16 02:41:51;;;;;;;4.85;1.95;;;16.60;99.90;;;;;;5053059;28;20090;-60
2022/07/16 02:44:18;;;;;;;5.85;2.00;;;16.60;99.90;;;;;;5049976;28;20036;-60
2022/07/16 02:46:44;;;;;;;7.57;1.90;;;16.50;99.90;;;;;;5049509;28;20403;-61
2022/07/16 02:49:10;;;;;;;5.03;2.70;;;16.40;99.90;;;;;;5050745;28;20087;-61
2022/07/16 02:51:35;;;;;;;4.78;2.17;;;16.40;99.90;;;;;;5050035;28;20032;-60
2022/07/16 02:54:02;;;;;;;7.20;2.63;;;16.40;99.90;;;;;;5050792;28;20036;-60
2022/07/16 02:56:28;;;;;;;4.50;2.03;;;16.30;99.90;;;;;;5048552;28;20102;-61
2022/07/16 02:58:53;;;;;;;4.20;2.22;;;16.30;99.90;;;;;;5050823;28;20461;-61
2022/07/16 03:01:19;;;;;;;5.32;2.30;;;16.20;99.90;;;;;;5031084;28;20103;-60
2022/07/16 03:03:45;;;;;;;5.70;2.28;;;16.20;99.90;;;;;;5048423;28;20037;-60
2022/07/16 03:06:10;;;;;;;5.57;1.90;;;16.10;99.90;;;;;;5031296;28;20041;-61
2022/07/16 03:08:36;;;;;;;4.28;1.90;;;16.10;99.90;;;;;;5036413;28;20086;-60
2022/07/16 03:11:01;;;;;;;5.85;1.90;;;16.00;99.90;;;;;;5051165;28;20033;-61
2022/07/16 03:13:27;;;;;;;6.45;2.35;;;16.00;99.90;;;;;;5049502;28;20036;-61
2022/07/16 03:15:53;;;;;;;5.63;2.25;;;16.00;99.90;;;;;;5046691;28;20112;-60
2022/07/16 03:18:21;;;;;;;6.65;1.98;;;16.00;99.90;;;;;;5050193;28;20033;-60
2022/07/16 03:20:47;;;;;;;6.63;2.25;;;16.00;99.90;;;;;;5048664;28;20073;-60
2022/07/16 03:23:13;;;;;;;8.82;2.22;;;16.00;99.90;;;;;;5048626;28;20057;-61
2022/07/16 03:25:38;;;;;;;7.55;2.05;;;16.10;99.90;;;;;;5048024;28;20047;-61
2022/07/16 03:28:04;;;;;;;5.65;2.00;;;16.10;99.90;;;;;;5048376;28;20160;-61
2022/07/16 03:30:30;;;;;;;5.10;2.15;;;16.10;99.90;;;;;;5049127;28;20525;-60
2022/07/16 03:32:57;;;;;;;6.65;2.05;;;16.00;99.90;;;;;;5050755;28;20082;-61
2022/07/16 03:35:22;;;;;;;3.78;1.88;;;16.00;99.90;;;;;;5048801;28;20460;-60
2022/07/16 03:40:33;;;;;;;;;;;16.00;99.90;;;;;;5049712;28;20041;-61
2022/07/16 03:42:59;;;;;;;5.47;1.95;;;16.00;99.90;;;;;;5048035;28;19921;-61
2022/07/16 03:45:24;;;;;;;5.43;1.80;;;16.00;99.90;;;;;;5048296;28;20645;-61
2022/07/16 03:47:50;;;;;;;6.05;2.28;;;16.00;99.90;;;;;;5046868;28;20030;-61
2022/07/16 03:50:16;;;;;;;5.13;1.80;;;16.00;99.90;;;;;;5048779;28;20643;-61
2022/07/16 03:52:42;;;;;;;6.05;2.10;;;16.10;99.90;;;;;;5050877;28;20041;-60
2022/07/16 03:55:08;;;;;;;5.15;2.03;;;16.00;99.90;;;;;;5045640;28;20190;-61
2022/07/16 03:57:33;;;;;;;5.75;2.00;;;16.00;99.90;;;;;;5047699;28;20064;-61
2022/07/16 03:59:59;;;;;;;6.03;2.38;;;16.00;99.90;;;;;;5045262;28;20079;-61
2022/07/16 04:02:24;;;;;;;7.28;2.25;;;16.00;99.90;;;;;;5047532;28;20116;-61
2022/07/16 04:04:50;;;;;;;9.43;2.42;;;16.00;99.90;;;;;;5049097;28;20140;-61
2022/07/16 04:07:16;;;;;;;6.07;2.08;;;16.00;99.90;;;;;;5048136;28;20021;-61
2022/07/16 04:09:41;;;;;;;6.35;1.73;;;16.00;99.90;;;;;;5049358;28;20374;-61
2022/07/16 04:12:07;;;;;;;6.10;2.03;;;16.00;99.90;;;;;;5048742;28;20098;-61
2022/07/16 04:14:33;;;;;;;4.47;1.80;;;16.00;99.90;;;;;;5047392;28;20034;-61
2022/07/16 04:16:58;;;;;;;3.13;1.75;;;15.90;99.90;;;;;;5046346;28;20454;-61
2022/07/16 04:19:24;;;;;;;6.13;1.90;;;15.80;99.90;;;;;;5032390;28;20102;-61
2022/07/16 04:21:49;;;;;;;6.38;2.08;;;15.90;99.90;;;;;;5047680;28;20035;-62
2022/07/16 04:24:15;;;;;;;6.20;2.20;;;15.80;99.90;;;;;;5047049;28;20041;-61
2022/07/16 04:26:41;;;;;;;5.00;1.85;;;15.80;99.90;;;;;;5047153;28;20041;-61
2022/07/16 04:29:06;;;;;;;5.55;2.03;;;15.80;99.90;;;;;;5046436;28;20120;-61
2022/07/16 04:31:32;;;;;;;4.45;2.08;;;15.80;99.90;;;;;;5031495;28;20055;-61
2022/07/16 04:33:59;;;;;;;5.90;1.90;;;15.80;99.90;;;;;;5033227;28;20040;-62
2022/07/16 04:36:25;;;;;;;3.20;1.83;;;15.80;99.90;;;;;;5046755;28;20420;-61
2022/07/16 04:38:50;;;;;;;3.45;1.80;;;15.80;99.90;;;;;;5049674;28;20506;-61
2022/07/16 04:41:16;;;;;;;5.30;2.33;;;15.80;99.90;;;;;;5044861;28;20041;-61
2022/07/16 04:43:41;;;;;;;3.83;2.20;;;15.80;99.90;;;;;;5029249;28;20128;-61
2022/07/16 04:46:07;;;;;;;5.07;2.05;;;15.80;99.90;;;;;;5048251;28;20033;-61
2022/07/16 04:48:32;;;;;;;4.53;1.88;;;15.80;99.90;;;;;;5028458;28;20362;-61
2022/07/16 04:50:58;;;;;;;5.35;1.80;;;15.80;99.90;;;;;;5047900;28;20083;-61
2022/07/16 04:53:24;;;;;;;4.93;1.80;;;15.80;99.90;;;;;;5048424;28;20528;-61
2022/07/16 04:55:49;;;;;;;8.10;2.20;;;15.80;99.90;;;;;;5042814;28;20037;-61
2022/07/16 04:58:15;;;;;;;7.45;1.98;;;15.80;99.90;;;;;;5046523;28;20124;-61
2022/07/16 05:00:42;;;;;;;6.35;2.00;;;16.10;99.90;;;;;;5048032;28;20426;-61
2022/07/16 05:03:08;;;;;;;5.00;2.00;;;16.80;99.90;;;;;;5046380;28;20076;-62
2022/07/16 05:05:36;;;;;;;8.07;2.67;;;17.60;99.90;;;;;;5047111;28;20032;-61
2022/07/16 05:08:05;;;;;;;8.73;2.03;;;18.20;99.90;;;;;;5048628;28;20108;-61
2022/07/16 05:10:31;;;;;;;6.57;2.28;;;18.90;99.90;;;;;;5048386;28;20303;-61
2022/07/16 05:12:57;;;;;;;5.93;2.25;;;19.20;99.90;;;;;;5045813;28;20032;-61
2022/07/16 05:15:23;;;;;;;5.13;2.00;;;19.50;99.90;;;;;;5043782;28;20045;-63
2022/07/16 05:17:49;;;;;;;6.90;1.90;;;20.00;99.90;;;;;;5047399;28;20047;-61
2022/07/16 05:20:15;;;;;;;5.53;1.85;;;20.00;99.90;;;;;;5030524;28;20092;-62
2022/07/16 05:22:41;;;;;;;4.13;1.60;;;19.60;99.90;;;;;;5043014;28;20033;-62
2022/07/16 05:25:08;;;;;;;4.95;1.58;;;19.50;99.90;;;;;;5045655;28;20041;-61
2022/07/16 05:27:34;;;;;;;8.25;2.17;;;19.70;99.90;;;;;;5046543;28;20048;-62
2022/07/16 05:30:01;;;;;;;7.47;1.95;;;19.90;99.90;;;;;;5047356;28;20028;-61
2022/07/16 05:32:27;;;;;;;6.03;1.80;;;20.00;99.90;;;;;;5049351;28;20719;-62
2022/07/16 05:34:54;;;;;;;6.32;1.95;;;20.40;99.90;;;;;;5047059;28;20127;-62
2022/07/16 05:37:20;;;;;;;5.97;1.88;;;20.60;99.90;;;;;;5033374;28;20451;-62
2022/07/16 05:39:45;;;;;;;6.15;1.80;;;20.80;99.90;;;;;;5045522;28;20042;-61
2022/07/16 05:42:11;;;;;;;5.55;1.60;;;20.80;99.90;;;;;;5047345;28;20044;-61
2022/07/16 05:44:37;;;;;;;7.15;1.63;;;21.00;99.90;;;;;;5044569;28;20037;-62
2022/07/16 05:47:04;;;;;;;5.90;1.65;;;21.60;99.90;;;;;;5047772;28;20037;-61
2022/07/16 05:49:29;;;;;;;6.90;1.52;;;21.90;99.90;;;;;;5046923;28;20354;-62
2022/07/16 05:51:55;;;;;;;5.95;1.52;;;22.40;99.90;;;;;;5047031;28;20048;-61
2022/07/16 05:54:20;;;;;;;4.60;1.90;;;22.70;99.90;;;;;;5045666;28;20044;-62
2022/07/16 05:56:46;;;;;;;5.97;1.80;;;22.50;99.90;;;;;;5042680;28;20107;-62
2022/07/16 05:59:12;;;;;;;5.38;1.75;;;22.80;99.90;;;;;;5048715;28;20037;-61
2022/07/16 06:01:37;;;;;;;5.20;1.63;;;22.80;99.90;;;;;;5048509;28;20037;-62
2022/07/16 06:04:03;;;;;;;6.82;1.48;;;22.90;99.90;;;;;;5050862;28;20450;-62
2022/07/16 06:06:29;;;;;;;7.43;1.70;;;23.10;99.90;;;;;;5048768;28;20132;-62
2022/07/16 06:08:55;;;;;;;5.68;1.52;;;23.10;99.50;;;;;;5033894;28;20048;-61
2022/07/16 06:11:20;;;;;;;4.82;1.50;;;22.80;99.30;;;;;;5049500;28;20025;-62
2022/07/16 06:13:46;;;;;;;6.88;1.55;;;22.50;99.10;;;;;;5047747;28;20457;-61
2022/07/16 06:16:12;;;;;;;4.15;1.65;;;22.40;98.50;;;;;;5038850;28;20451;-62
2022/07/16 06:18:37;;;;;;;4.30;1.50;;;22.80;99.30;;;;;;5048149;28;20048;-61
2022/07/16 06:21:03;;;;;;;6.80;1.52;;;23.10;99.00;;;;;;5043623;28;20477;-63
2022/07/16 06:23:29;;;;;;;4.57;1.50;;;23.50;98.60;;;;;;5047396;28;20357;-61
2022/07/16 06:25:55;;;;;;;8.07;1.60;;;23.80;97.40;;;;;;5059494;28;20470;-61
2022/07/16 06:28:21;;;;;;;7.53;1.60;;;24.10;97.80;;;;;;5062135;28;20082;-62
2022/07/16 06:30:46;;;;;;;4.75;1.40;;;24.00;97.40;;;;;;5046913;28;20036;-61
2022/07/16 06:33:12;;;;;;;3.92;1.55;;;23.80;97.30;;;;;;5058930;28;20096;-61
2022/07/16 06:35:38;;;;;;;5.65;1.20;;;23.80;97.20;;;;;;5065052;28;20033;-61
2022/07/16 06:38:03;;;;;;;3.90;1.48;;;24.10;96.70;;;;;;5055399;28;20582;-61
2022/07/16 06:40:29;;;;;;;5.05;1.30;;;24.00;96.10;;;;;;5050958;28;20060;-61
2022/07/16 06:42:55;;;;;;;4.55;1.20;;;23.30;95.90;;;;;;5031997;28;20370;-61
2022/07/16 06:45:21;;;;;;;5.35;1.20;;;23.10;96.60;;;;;;5049723;28;20438;-61
2022/07/16 06:47:47;;;;;;;5.82;1.33;;;23.10;96.70;;;;;;5049445;28;20033;-61
2022/07/16 06:50:13;;;;;;;5.68;1.38;;;23.30;96.20;;;;;;5050137;28;20033;-62
2022/07/16 06:52:39;;;;;;;7.25;1.33;;;23.20;96.00;;;;;;5052750;28;20044;-61
2022/07/16 06:55:05;;;;;;;3.50;1.15;;;23.80;95.40;;;;;;5053990;28;20033;-61
2022/07/16 06:57:31;;;;;;;4.10;1.30;;;23.30;95.70;;;;;;5051035;28;20045;-62
2022/07/16 06:59:57;;;;;;;5.75;1.70;;;23.60;96.10;;;;;;5049880;28;20048;-60
2022/07/16 07:02:22;;;;;;;5.43;1.38;;;24.00;95.10;;;;;;5051403;28;20474;-60
2022/07/16 07:04:48;;;;;;;6.78;1.40;;;23.00;96.30;;;;;;5049597;28;20063;-60
2022/07/16 07:07:14;;;;;;;3.88;1.17;;;22.20;96.40;;;;;;5048585;28;20040;-61
2022/07/16 07:09:40;;;;;;;5.30;1.30;;;21.60;97.70;;;;;;5053454;28;20033;-61
2022/07/16 07:12:06;;;;;;;5.15;1.20;;;21.10;98.20;;;;;;5050119;28;20079;-60
2022/07/16 07:14:32;;;;;;;4.97;1.10;;;21.10;98.50;;;;;;5050721;28;20366;-61
2022/07/16 07:16:57;;;;;;;3.40;1.00;;;20.90;98.90;;;;;;5044596;28;20247;-60
2022/07/16 07:19:23;;;;;;;2.88;1.10;;;21.00;99.00;;;;;;5052317;28;20365;-61
2022/07/16 07:21:48;;;;;;;4.63;1.48;;;21.40;98.90;;;;;;5053443;28;20025;-63
2022/07/16 07:24:14;;;;;;;6.05;1.48;;;21.40;98.60;;;;;;5048103;28;20045;-62
2022/07/16 07:26:40;;;;;;;3.90;1.30;;;20.80;98.70;;;;;;5048326;28;20068;-60
2022/07/16 07:29:06;;;;;;;5.50;1.90;;;20.40;99.20;;;;;;5047730;28;20037;-61
2022/07/16 07:31:31;;;;;;;5.20;1.75;;;20.10;99.80;;;;;;5014450;28;20033;-60
2022/07/16 07:33:57;;;;;;;7.65;1.83;;;19.80;99.90;;;;;;5052061;28;20037;-61
2022/07/16 07:36:23;;;;;;;5.75;1.60;;;19.70;99.90;;;;;;5047189;28;20033;-61
2022/07/16 07:38:48;;;;;;;6.57;2.60;;;19.50;99.90;;;;;;5050379;28;20490;-61
2022/07/16 07:41:14;;;;;;;7.43;1.73;;;19.40;99.90;;;;;;5045438;28;20044;-60
2022/07/16 07:43:39;;;;;;;4.63;2.03;;;19.30;99.90;;;;;;5043929;28;20431;-61
2022/07/16 07:46:06;;;;;;;5.95;2.10;;;19.30;99.90;;;;;;5049586;28;20044;-61
2022/07/16 07:48:32;;;;;;;6.78;1.70;;;19.30;99.90;;;;;;5048157;28;20130;-61
2022/07/16 07:50:58;;;;;;;5.63;1.33;;;19.20;99.90;;;;;;5049772;28;20084;-60
2022/07/16 07:53:24;;;;;;;5.72;1.35;;;18.80;99.90;;;;;;5049054;28;20178;-61
2022/07/16 07:55:50;;;;;;;7.22;1.33;;;18.60;99.90;;;;;;5043968;28;20071;-61
2022/07/16 07:58:15;;;;;;;6.75;1.30;;;18.80;99.90;;;;;;5043770;28;20040;-61
2022/07/16 08:00:42;;;;;;;6.32;1.52;;;18.60;99.90;;;;;;5051674;28;20037;-61
2022/07/16 08:03:08;;;;;;;6.75;1.58;;;18.70;99.90;;;;;;5053301;28;20533;-61
2022/07/16 08:05:34;;;;;;;6.40;1.70;;;18.70;99.90;;;;;;5050588;28;20112;-61
2022/07/16 08:07:59;;;;;;;5.35;1.10;;;19.00;99.90;;;;;;5046375;28;20152;-61
2022/07/16 08:10:25;;;;;;;7.63;1.52;;;19.10;99.90;;;;;;5048177;28;20069;-60
2022/07/16 08:12:51;;;;;;;5.05;1.10;;;19.30;99.90;;;;;;5050470;28;20084;-60
2022/07/16 08:15:17;;;;;;;5.10;1.40;;;19.30;99.90;;;;;;5045056;28;20048;-63
2022/07/16 08:17:42;;;;;;;5.15;1.00;;;19.40;99.90;;;;;;5050643;28;20032;-61
2022/07/16 08:20:10;;;;;;;5.32;1.33;;;19.60;99.90;;;;;;5046087;28;20041;-61
2022/07/16 08:22:36;;;;;;;6.90;1.30;;;20.00;99.90;;;;;;5045836;28;20040;-60
2022/07/16 08:27:47;;;;;;;4.38;1.20;;;20.40;99.20;;;;;;5046743;28;20041;-62
2022/07/16 08:30:13;;;;;;;7.13;1.25;;;20.20;99.10;;;;;;5048203;28;20120;-61
2022/07/16 08:32:38;;;;;;;5.88;1.30;;;20.20;99.00;;;;;;5049947;28;20036;-62
2022/07/16 08:35:05;;;;;;;5.68;1.20;;;19.90;98.60;;;;;;5030836;28;20071;-61
2022/07/16 08:37:39;;;;;;;5.95;1.40;;;19.90;98.50;;;;;;5049228;28;20140;-61
2022/07/16 08:40:08;;;;;;;6.10;1.50;;;20.00;97.60;;;;;;5047681;28;20128;-61
2022/07/16 08:42:35;;;;;;;3.92;1.10;;;20.10;97.80;;;;;;5049345;28;20390;-61
2022/07/16 08:45:02;;;;;;;3.83;1.23;;;20.20;97.50;;;;;;5046143;28;20044;-61
2022/07/16 08:47:30;;;;;;;4.70;1.33;;;20.30;97.50;;;;;;5047978;28;20037;-61
2022/07/16 08:50:08;;;;;;;1.70;0.80;;;20.30;97.20;;;;;;5047791;28;20123;-61
2022/07/16 08:52:48;;;;;;;5.75;1.65;;;20.60;96.90;;;;;;5048382;28;20079;-60
2022/07/16 08:55:14;;;;;;;4.00;1.13;;;20.30;96.90;;;;;;5042305;28;20116;-61
2022/07/16 08:57:41;;;;;;;2.75;1.13;;;19.90;97.00;;;;;;5045110;28;20124;-60
2022/07/16 09:00:13;;;;;;;4.05;0.95;;;19.60;97.30;;;;;;5046583;28;20343;-61
2022/07/16 09:02:39;;;;;;;1.92;0.90;;;19.50;97.40;;;;;;5048503;28;20374;-60
2022/07/16 09:05:05;;;;;;;5.32;1.20;;;19.40;97.60;;;;;;5026731;28;20064;-62
2022/07/16 09:07:31;;;;;;;5.07;1.52;;;19.60;97.30;;;;;;5059300;28;20111;-62
2022/07/16 09:09:57;;;;;;;4.28;1.20;;;19.90;97.20;;;;;;5058213;28;20463;-61
2022/07/16 09:12:43;;;;;;;8.20;1.52;;;20.30;96.60;;;;;;5045963;28;20032;-61
2022/07/16 09:15:37;;;;;;;3.00;1.10;;;20.50;96.60;;;;;;5045107;28;20045;-61
2022/07/16 09:18:22;;;;;;;3.80;0.80;;;20.30;96.10;;;;;;5042402;28;20124;-61
2022/07/16 09:20:55;;;;;;;3.75;1.15;;;20.00;96.50;;;;;;5045256;28;20033;-61
2022/07/16 09:23:25;;;;;;;1.75;0.90;;;19.80;96.60;;;;;;5042183;28;20485;-61
2022/07/16 09:25:53;;;;;;;3.97;1.23;;;20.00;96.60;;;;;;5027117;28;20064;-62
2022/07/16 09:28:21;;;;;;;3.25;1.15;;;20.30;96.10;;;;;;5047871;28;20385;-62
2022/07/16 09:30:46;;;;;;;6.38;1.30;;;20.40;95.70;;;;;;5047080;28;20040;-61
2022/07/16 09:33:15;;;;;;;5.28;1.27;;;20.50;96.00;;;;;;5048601;28;20033;-61
2022/07/16 09:35:41;;;;;;;4.88;0.98;;;20.40;96.10;;;;;;5042019;28;20044;-61
2022/07/16 09:38:09;;;;;;;1.02;0.70;;;20.20;96.30;;;;;;5042844;28;20052;-61
2022/07/16 09:40:44;;;;;;;3.28;0.90;;;20.20;96.20;;;;;;5048211;28;20075;-61
2022/07/16 09:43:15;;;;;;;4.70;1.10;;;20.10;95.10;;;;;;5048173;28;20055;-61
2022/07/16 09:45:57;;;;;;;5.63;1.15;;;20.10;95.40;;;;;;5045029;28;20291;-61
2022/07/16 09:48:25;;;;;;;2.22;0.80;;;20.30;95.10;;;;;;5042041;28;20370;-61
2022/07/16 09:50:53;;;;;;;3.63;1.10;;;20.60;95.00;;;;;;5049367;28;20124;-61
2022/07/16 09:53:23;;;;;;;5.28;1.13;;;21.00;94.50;;;;;;5050608;28;20041;-61
2022/07/16 09:56:04;;;;;;;2.53;1.00;;;21.30;94.50;;;;;;5051411;28;20055;-61
2022/07/16 09:58:31;;;;;;;3.30;1.20;;;21.60;94.50;;;;;;5032986;28;20045;-61
2022/07/16 10:00:58;;;;;;;2.53;0.93;;;21.20;95.00;;;;;;5043572;28;20040;-61
2022/07/16 10:03:25;;;;;;;4.95;1.17;;;21.00;95.50;;;;;;5046427;28;20042;-61
2022/07/16 10:05:51;;;;;;;3.35;0.95;;;20.90;95.60;;;;;;5042853;28;20041;-61
2022/07/16 10:08:17;;;;;;;4.97;1.13;;;21.00;95.70;;;;;;5043166;28;20025;-62
2022/07/16 10:10:44;;;;;;;3.55;1.05;;;20.90;95.60;;;;;;5043424;28;20036;-62
2022/07/16 10:13:11;;;;;;;3.47;0.70;;;21.10;95.90;;;;;;5044533;28;20092;-61
2022/07/16 10:15:38;;;;;;;4.53;1.13;;;21.00;95.80;;;;;;5044393;28;20302;-62
2022/07/16 10:18:23;;;;;;;6.05;1.33;;;20.70;95.60;;;;;;5045496;28;20465;-61
2022/07/16 10:21:05;;;;;;;4.75;1.25;;;20.40;95.50;;;;;;5044060;28;20386;-60
2022/07/16 10:23:32;;;;;;;4.32;1.23;;;20.40;95.50;;;;;;5044597;28;20139;-61
2022/07/16 10:26:00;;;;;;;4.15;1.20;;;20.60;95.10;;;;;;5046409;28;20079;-62
2022/07/16 10:28:41;;;;;;;4.68;1.10;;;20.80;95.00;;;;;;5046171;28;20037;-60
2022/07/16 10:32:27;;;;;;;6.28;1.45;;;21.10;94.50;;;;;;5043723;28;20064;-61
2022/07/16 10:34:37;;;;;;;3.08;0.90;;;21.40;94.50;;;;;;5045868;28;20087;-60
2022/07/16 10:37:04;;;;;;;5.35;1.20;;;21.70;94.00;;;;;;5045088;28;20033;-59
2022/07/16 10:39:30;;;;;;;4.63;1.23;;;21.90;93.90;;;;;;5043381;28;20033;-59
2022/07/16 10:42:01;;;;;;;4.07;1.20;;;21.70;94.40;;;;;;5046281;28;20480;-60
2022/07/16 10:44:46;;;;;;;4.63;1.30;;;21.70;94.40;;;;;;5029915;28;20373;-60
2022/07/16 10:47:13;;;;;;;5.53;1.33;;;21.70;93.80;;;;;;5050766;28;20363;-59
2022/07/16 10:49:39;;;;;;;5.03;1.10;;;21.70;94.10;;;;;;5047896;28;20037;-61
2022/07/16 10:52:18;;;;;;;2.97;1.20;;;21.70;94.20;;;;;;5052824;28;20055;-60
2022/07/16 10:55:02;;;;;;;5.03;1.15;;;21.90;93.80;;;;;;5044612;28;20030;-60
2022/07/16 10:57:36;;;;;;;5.55;1.27;;;22.00;94.20;;;;;;5047280;28;20117;-60
2022/07/16 11:00:04;;;;;;;2.75;0.90;;;22.10;94.20;;;;;;5053913;28;20037;-60
2022/07/16 11:02:37;;;;;;;5.22;1.10;;;22.20;94.10;;;;;;5050327;28;20069;-60
2022/07/16 11:05:03;;;;;;;4.90;0.93;;;22.20;94.60;;;;;;5046453;28;20040;-60
2022/07/16 11:07:34;;;;;;;5.43;1.50;;;22.20;94.50;;;;;;5049920;28;20139;-61
2022/07/16 11:09:59;;;;;;;4.88;1.15;;;21.90;94.60;;;;;;5051475;28;20039;-61
2022/07/16 11:12:29;;;;;;;8.57;1.55;;;21.70;94.60;;;;;;5054810;28;20032;-60
2022/07/16 11:14:57;;;;;;;3.40;1.30;;;21.90;94.80;;;;;;5054913;28;20082;-60
2022/07/16 11:17:29;;;;;;;5.65;1.45;;;22.00;94.90;;;;;;5047652;28;20035;-60
2022/07/16 11:19:57;;;;;;;2.45;0.90;;;22.00;94.70;;;;;;5050388;28;20467;-61
2022/07/16 11:22:28;;;;;;;4.53;1.20;;;22.00;94.60;;;;;;5046130;28;20075;-61
2022/07/16 11:25:00;;;;;;;4.57;1.17;;;22.00;94.60;;;;;;5029724;28;20096;-61
2022/07/16 11:27:37;;;;;;;5.35;1.20;;;22.10;94.70;;;;;;5018357;28;20347;-61
2022/07/16 11:30:06;;;;;;;3.38;1.10;;;21.90;94.90;;;;;;5049812;28;20321;-62
2022/07/16 11:32:32;;;;;;;4.95;1.20;;;22.10;94.80;;;;;;5052617;28;20036;-60
2022/07/16 11:35:04;;;;;;;5.53;1.50;;;21.80;95.10;;;;;;5049311;28;20336;-60
2022/07/16 11:37:46;;;;;;;6.57;1.10;;;21.70;95.60;;;;;;5044953;28;20041;-61
2022/07/16 11:40:11;;;;;;;5.78;1.17;;;21.60;95.50;;;;;;5031369;28;20044;-61
2022/07/16 11:42:37;;;;;;;5.57;1.30;;;21.60;96.10;;;;;;5048515;28;20037;-60
2022/07/16 11:45:06;;;;;;;4.22;1.48;;;21.60;96.10;;;;;;5046707;28;20036;-61
2022/07/16 11:47:32;;;;;;;7.32;1.40;;;21.90;96.20;;;;;;5043131;28;20086;-61
2022/07/16 11:49:58;;;;;;;4.82;1.42;;;22.00;96.20;;;;;;5032995;28;20045;-60
2022/07/16 11:52:27;;;;;;;10.95;2.67;;;21.90;96.20;;;;;;5045711;28;20037;-61
2022/07/16 11:54:57;;;;;;;6.82;1.17;;;21.80;96.20;;;;;;5047399;28;20043;-61
2022/07/16 11:57:23;;;;;;;3.72;1.15;;;21.80;96.80;;;;;;5041223;28;20029;-60
2022/07/16 11:59:54;;;;;;;6.00;1.38;;;21.50;97.10;;;;;;5041787;28;20041;-60
2022/07/16 12:02:27;;;;;;;5.20;1.50;;;21.60;97.80;;;;;;5046638;28;20458;-60
2022/07/16 12:04:56;;;;;;;5.15;1.30;;;21.70;97.30;;;;;;5045660;28;20104;-61
2022/07/16 12:07:25;;;;;;;4.28;1.50;;;22.00;97.00;;;;;;5040386;28;20063;-60
2022/07/16 12:09:53;;;;;;;6.00;1.42;;;22.10;96.70;;;;;;5027269;28;20068;-60
2022/07/16 12:12:20;;;;;;;6.22;1.10;;;22.10;96.90;;;;;;5045213;28;20037;-60
2022/07/16 12:14:57;;;;;;;6.82;1.40;;;21.80;97.10;;;;;;5047282;28;20119;-60
2022/07/16 12:17:33;;;;;;;8.23;1.40;;;21.70;97.00;;;;;;5046330;28;20075;-60
2022/07/16 12:20:03;;;;;;;6.40;1.48;;;21.30;96.40;;;;;;5046804;28;20046;-60
2022/07/16 12:23:03;;;;;;;4.95;1.30;;;21.30;97.10;;;;;;5049349;28;20036;-60
2022/07/16 12:25:31;;;;;;;7.03;1.73;;;21.20;97.00;;;;;;5043193;28;20047;-60
2022/07/16 12:28:00;;;;;;;8.00;1.30;;;21.40;96.60;;;;;;5047743;28;20455;-60
2022/07/16 12:30:59;;;;;;;4.95;1.33;;;21.60;96.40;;;;;;5045480;28;20095;-60
2022/07/16 12:33:27;;;;;;;5.60;1.08;;;21.70;95.00;;;;;;5039573;28;20132;-60
2022/07/16 12:36:04;;;;;;;4.32;1.55;;;21.90;95.40;;;;;;5053904;28;20048;-61
2022/07/16 12:38:54;;;;;;;4.38;1.10;;;22.20;95.40;;;;;;5055895;28;20048;-60
2022/07/16 12:41:27;;;;;;;3.15;1.17;;;22.40;95.20;;;;;;5055045;28;20032;-61
2022/07/16 12:44:17;;;;;;;4.97;1.40;;;22.30;94.80;;;;;;5047975;28;20044;-60
2022/07/16 12:46:51;;;;;;;4.57;1.25;;;22.30;94.80;;;;;;5046823;28;20104;-61
2022/07/16 12:49:22;;;;;;;3.72;1.23;;;22.50;94.60;;;;;;5032118;28;20036;-61
2022/07/16 12:51:53;;;;;;;5.93;1.45;;;22.30;94.30;;;;;;5048688;28;20032;-60
2022/07/16 12:54:20;;;;;;;3.00;1.13;;;22.20;94.30;;;;;;5053535;28;20036;-60
2022/07/16 12:59:33;;;;;;;4.40;1.10;;;22.40;94.30;;;;;;5053829;28;20124;-60
2022/07/16 13:02:00;;;;;;;4.25;1.23;;;22.50;94.30;;;;;;5055894;28;20090;-60